Time;durP1;ratioP1;P1;durP2;ratioP2;P2;SDS_P1;SDS_P2;PMS_P1;PMS_P2;Temp;Humidity;BMP_temperature;BMP_pressure;BME280_temperature;BME280_humidity;BME280_pressure;Samples;Min_cycle;Max_cycle;Signal;HPM_P1;HPM_P2
2023/09/13 00:01:12;;;;;;;0.00;0.00;;;;;;;20.05;75.17;99959.00;10373321;28;20507;-63
2023/09/13 00:06:14;;;;;;;0.00;0.00;;;;;;;19.99;75.20;99960.81;10397702;28;20081;-67
2023/09/13 00:11:15;;;;;;;0.00;0.00;;;;;;;19.97;75.05;99963.81;10381068;28;20053;-66
2023/09/13 00:16:17;;;;;;;0.00;0.00;;;;;;;19.92;75.07;99966.44;10385990;28;20051;-66
2023/09/13 00:21:20;;;;;;;0.00;0.00;;;;;;;19.94;75.46;99974.38;10388749;28;20057;-70
2023/09/13 00:26:21;;;;;;;0.00;0.00;;;;;;;19.91;75.33;99963.97;10381211;28;20050;-63
2023/09/13 00:31:23;;;;;;;0.00;0.00;;;;;;;19.81;75.23;99956.44;10381459;28;20080;-68
2023/09/13 00:36:24;;;;;;;0.00;0.00;;;;;;;19.92;75.10;99960.16;10378221;28;20864;-64
2023/09/13 00:41:26;;;;;;;0.00;0.00;;;;;;;19.84;74.92;99964.13;10380403;28;20054;-65
2023/09/13 00:46:28;;;;;;;0.00;0.00;;;;;;;19.77;74.97;99966.19;10384938;28;20045;-66
2023/09/13 00:51:30;;;;;;;0.00;0.00;;;;;;;19.62;75.36;99972.16;10382449;28;20060;-65
2023/09/13 00:56:33;;;;;;;0.00;0.00;;;;;;;19.64;75.66;99972.75;10385830;28;20412;-68
2023/09/13 01:01:35;;;;;;;0.00;0.00;;;;;;;19.74;75.37;99980.31;10389701;28;20034;-64
2023/09/13 01:06:37;;;;;;;0.00;0.00;;;;;;;19.81;75.17;99981.81;10393391;28;20548;-63
2023/09/13 01:11:39;;;;;;;0.00;0.00;;;;;;;19.88;75.12;99987.09;10395592;28;20052;-66
2023/09/13 01:17:04;;;;;;;0.00;0.00;;;;;;;19.91;74.68;99988.53;10399308;28;20140;-61
2023/09/13 01:22:05;;;;;;;0.10;0.10;;;;;;;19.94;75.10;99993.47;10390067;28;20457;-64
2023/09/13 01:27:26;;;;;;;0.00;0.00;;;;;;;19.94;74.88;99993.47;10395880;28;20055;-63
2023/09/13 01:32:28;;;;;;;0.00;0.00;;;;;;;19.97;75.20;99996.53;10389193;28;20073;-63
2023/09/13 01:37:31;;;;;;;0.00;0.00;;;;;;;19.98;74.92;99998.22;10383449;28;20383;-65
2023/09/13 01:42:36;;;;;;;0.00;0.00;;;;;;;20.01;74.90;99992.25;10391140;28;20675;-63
2023/09/13 01:47:40;;;;;;;0.00;0.00;;;;;;;20.01;75.36;99984.06;10396615;28;20045;-64
2023/09/13 01:52:42;;;;;;;0.00;0.00;;;;;;;20.11;74.86;99993.50;10388718;28;20045;-63
2023/09/13 01:57:44;;;;;;;0.00;0.00;;;;;;;20.21;74.79;99996.38;10387608;28;20049;-63
2023/09/13 02:02:45;;;;;;;0.00;0.00;;;;;;;20.23;74.83;100005.16;10392236;28;20119;-64
2023/09/13 02:07:47;;;;;;;0.00;0.00;;;;;;;20.19;75.09;100002.09;10389366;28;20525;-63
2023/09/13 02:12:49;;;;;;;0.00;0.00;;;;;;;20.21;75.05;100002.66;10386047;28;20045;-64
2023/09/13 02:17:50;;;;;;;0.00;0.00;;;;;;;20.33;74.79;100004.50;10388625;28;20049;-65
2023/09/13 02:22:52;;;;;;;0.00;0.00;;;;;;;20.30;74.89;100004.97;10386536;28;20042;-63
2023/09/13 02:27:53;;;;;;;0.00;0.00;;;;;;;20.30;74.45;100007.69;10380977;28;20665;-67
2023/09/13 02:32:55;;;;;;;0.00;0.00;;;;;;;20.25;74.68;100013.91;10390964;28;20074;-66
2023/09/13 02:37:57;;;;;;;0.00;0.00;;;;;;;20.24;75.09;100005.97;10385050;28;20045;-63
2023/09/13 02:42:59;;;;;;;0.00;0.00;;;;;;;20.16;75.51;100012.66;10388618;28;20064;-65
2023/09/13 02:48:00;;;;;;;0.10;0.10;;;;;;;20.22;75.52;100011.66;10385370;28;20053;-65
2023/09/13 02:53:03;;;;;;;0.00;0.00;;;;;;;20.33;74.66;100004.50;10393703;28;20045;-64
2023/09/13 02:58:05;;;;;;;0.00;0.00;;;;;;;20.41;74.63;100006.78;10381272;28;20140;-65
2023/09/13 03:03:07;;;;;;;0.00;0.00;;;;;;;20.44;74.56;100006.31;10387899;28;20046;-64
2023/09/13 03:08:09;;;;;;;0.00;0.00;;;;;;;20.39;75.15;100007.03;10380827;28;20045;-64
2023/09/13 03:13:10;;;;;;;0.00;0.00;;;;;;;20.35;75.17;99994.97;10393523;28;20053;-67
2023/09/13 03:18:12;;;;;;;0.00;0.00;;;;;;;20.34;75.37;99984.28;10385405;28;20103;-67
2023/09/13 03:23:14;;;;;;;0.00;0.00;;;;;;;20.33;75.32;99988.94;10391675;28;20084;-64
2023/09/13 03:28:15;;;;;;;0.00;0.00;;;;;;;20.27;75.40;99994.56;10384806;28;20056;-64
2023/09/13 03:33:17;;;;;;;0.00;0.00;;;;;;;20.23;75.56;99983.31;10385099;28;20127;-64
2023/09/13 03:38:18;;;;;;;0.00;0.00;;;;;;;20.22;75.84;99992.56;10385274;28;20404;-65
2023/09/13 03:43:20;;;;;;;0.00;0.00;;;;;;;20.21;75.65;100007.31;10387329;28;20635;-66
2023/09/13 03:48:21;;;;;;;0.00;0.00;;;;;;;20.25;75.41;100015.81;10382668;28;20049;-63
2023/09/13 03:53:24;;;;;;;0.00;0.00;;;;;;;20.34;75.20;100009.69;10379667;28;20038;-66
2023/09/13 03:58:25;;;;;;;0.05;0.05;;;;;;;20.45;75.33;100007.13;10380931;28;20041;-65
2023/09/13 04:03:27;;;;;;;0.00;0.00;;;;;;;20.45;75.49;100013.41;10373193;28;20720;-65
2023/09/13 04:08:29;;;;;;;0.00;0.00;;;;;;;20.59;74.91;100008.47;10382319;28;20076;-64
2023/09/13 04:13:30;;;;;;;0.00;0.00;;;;;;;20.66;74.65;100014.59;10384463;28;20504;-64
2023/09/13 04:18:32;;;;;;;0.00;0.00;;;;;;;20.76;74.62;100009.25;10393696;28;20041;-68
2023/09/13 04:23:34;;;;;;;0.00;0.00;;;;;;;20.85;74.16;100028.75;10389526;28;20052;-66
2023/09/13 04:28:35;;;;;;;0.00;0.00;;;;;;;20.86;74.59;100038.63;10382263;28;20061;-65
2023/09/13 04:33:47;;;;;;;0.00;0.00;;;;;;;20.91;74.68;100037.84;10381567;28;20045;-64
2023/09/13 04:38:49;;;;;;;0.00;0.00;;;;;;;20.95;74.39;100036.28;10386326;28;20065;-64
2023/09/13 04:43:51;;;;;;;0.00;0.00;;;;;;;20.91;74.81;100046.06;10384004;28;20045;-64
2023/09/13 04:48:52;;;;;;;0.00;0.00;;;;;;;20.86;75.03;100051.47;10380831;28;20042;-63
2023/09/13 04:53:54;;;;;;;0.00;0.00;;;;;;;20.83;75.05;100055.50;10381064;28;20115;-64
2023/09/13 04:58:55;;;;;;;0.00;0.00;;;;;;;20.88;74.89;100049.31;10377441;28;20046;-71
2023/09/13 05:03:58;;;;;;;0.00;0.00;;;;;;;20.93;74.68;100060.28;10386095;28;20421;-68
2023/09/13 05:09:00;;;;;;;0.00;0.00;;;;;;;20.96;75.01;100066.09;10384573;28;20046;-63
2023/09/13 05:14:12;;;;;;;0.00;0.00;;;;;;;21.00;75.12;100067.25;10378522;28;20054;-58
2023/09/13 05:19:13;;;;;;;0.00;0.00;;;;;;;21.04;74.91;100067.56;10376548;28;20041;-60
2023/09/13 05:24:15;;;;;;;0.00;0.00;;;;;;;21.08;75.06;100070.63;10378978;28;20054;-59
2023/09/13 05:29:16;;;;;;;0.00;0.00;;;;;;;21.11;74.93;100070.94;10377794;28;20057;-59
2023/09/13 05:34:18;;;;;;;0.00;0.00;;;;;;;21.12;75.01;100078.06;10377669;28;20092;-58
2023/09/13 05:39:20;;;;;;;0.00;0.00;;;;;;;21.18;75.17;100085.25;10378674;28;20136;-58
2023/09/13 05:44:23;;;;;;;0.00;0.00;;;;;;;21.27;74.79;100093.84;10384940;28;20059;-60
2023/09/13 05:49:25;;;;;;;0.00;0.00;;;;;;;21.23;74.89;100105.53;10387230;28;20059;-59
2023/09/13 05:54:26;;;;;;;0.00;0.00;;;;;;;21.25;75.25;100109.69;10381988;28;20065;-60
2023/09/13 05:59:29;;;;;;;0.00;0.00;;;;;;;21.28;75.22;100108.34;10382535;28;20041;-59
2023/09/13 06:04:30;;;;;;;0.00;0.00;;;;;;;21.27;75.31;100107.53;10385231;28;20048;-60
2023/09/13 06:09:32;;;;;;;1.42;0.80;;;;;;;21.22;75.72;100101.16;10385107;28;20050;-58
2023/09/13 06:14:34;;;;;;;4.45;2.40;;;;;;;21.31;75.03;100114.13;10388307;28;20124;-62
2023/09/13 06:19:37;;;;;;;5.13;2.40;;;;;;;21.37;75.06;100112.31;10392077;28;20049;-66
2023/09/13 06:24:40;;;;;;;5.30;2.40;;;;;;;21.32;75.20;100118.50;10381442;28;20123;-66
2023/09/13 06:29:42;;;;;;;3.60;2.45;;;;;;;21.23;75.21;100133.72;10401386;28;20046;-65
2023/09/13 06:34:44;;;;;;;5.95;3.15;;;;;;;21.30;75.26;100133.53;10400107;28;20053;-66
2023/09/13 06:39:46;;;;;;;9.05;2.97;;;;;;;21.37;74.87;100135.00;10392591;28;20045;-65
2023/09/13 06:44:51;;;;;;;6.53;3.03;;;;;;;21.61;74.75;100145.72;10387823;28;20149;-66
2023/09/13 06:50:07;;;;;;;8.03;3.20;;;;;;;21.69;74.50;100144.47;10382054;28;20049;-65
2023/09/13 06:55:10;;;;;;;7.90;3.33;;;;;;;21.76;74.26;100150.56;10389680;28;20041;-62
2023/09/13 07:00:14;;;;;;;5.63;3.35;;;;;;;21.74;74.53;100139.03;10383997;28;20132;-61
2023/09/13 07:05:21;;;;;;;5.18;3.75;;;;;;;21.81;74.36;100160.75;10386547;28;20580;-66
2023/09/13 07:10:27;;;;;;;4.93;3.03;;;;;;;21.76;74.62;100156.03;10388831;28;20064;-62
2023/09/13 07:15:28;;;;;;;4.28;3.30;;;;;;;21.94;74.15;100165.84;10387659;28;20083;-62
2023/09/13 07:20:30;;;;;;;5.90;3.15;;;;;;;22.07;73.69;100173.63;10386061;28;20037;-61
2023/09/13 07:25:31;;;;;;;6.50;4.30;;;;;;;22.15;74.03;100183.31;10381258;28;20062;-61
2023/09/13 07:30:32;;;;;;;9.00;4.22;;;;;;;22.17;74.12;100184.69;10381776;28;20088;-61
2023/09/13 07:35:34;;;;;;;9.57;3.92;;;;;;;22.22;73.78;100183.13;10383205;28;20045;-62
2023/09/13 07:40:39;;;;;;;8.77;4.47;;;;;;;22.27;73.46;100189.50;10387103;28;20045;-62
2023/09/13 07:45:40;;;;;;;7.57;4.18;;;;;;;22.32;73.15;100200.50;10380699;28;20037;-62
2023/09/13 07:50:42;;;;;;;11.27;4.10;;;;;;;22.45;72.90;100193.78;10382707;28;20396;-61
2023/09/13 07:55:43;;;;;;;9.48;4.35;;;;;;;22.44;72.83;100210.50;10384035;28;20048;-62
2023/09/13 08:00:45;;;;;;;6.25;4.05;;;;;;;22.52;72.89;100212.78;10384679;28;20049;-61
2023/09/13 08:05:48;;;;;;;5.88;4.07;;;;;;;22.53;72.78;100207.03;10376913;28;20052;-63
2023/09/13 08:10:50;;;;;;;11.52;4.85;;;;;;;22.58;72.62;100218.03;10383980;28;20042;-62
2023/09/13 08:15:52;;;;;;;7.18;5.60;;;;;;;22.50;72.65;100228.63;10383128;28;20042;-62
2023/09/13 08:20:54;;;;;;;8.63;5.78;;;;;;;22.55;72.62;100240.47;10382235;28;20069;-62
2023/09/13 08:25:55;;;;;;;7.72;5.35;;;;;;;22.57;72.43;100243.78;10382008;28;20038;-62
2023/09/13 08:31:12;;;;;;;9.40;6.25;;;;;;;22.78;71.84;100254.94;10380507;28;20052;-62
2023/09/13 08:36:14;;;;;;;13.80;6.25;;;;;;;22.76;71.75;100262.59;10382424;28;20045;-62
2023/09/13 08:41:15;;;;;;;10.38;6.45;;;;;;;22.95;71.86;100276.75;10381095;28;20046;-62
2023/09/13 08:46:18;;;;;;;13.00;5.70;;;;;;;22.90;71.77;100273.97;10380671;28;20053;-62
2023/09/13 08:51:20;;;;;;;9.25;5.15;;;;;;;23.01;71.70;100280.38;10380334;28;20067;-62
2023/09/13 08:56:23;;;;;;;6.75;5.15;;;;;;;23.20;71.25;100280.84;10382619;28;20084;-60
2023/09/13 09:01:27;;;;;;;11.20;5.57;;;;;;;23.04;70.93;100288.09;10381453;28;20144;-61
2023/09/13 09:06:30;;;;;;;6.28;4.65;;;;;;;23.28;70.98;100285.84;10377244;28;20048;-61
2023/09/13 09:11:35;;;;;;;5.22;4.15;;;;;;;23.31;69.96;100288.88;10378933;28;20136;-61
2023/09/13 09:16:38;;;;;;;6.60;3.30;;;;;;;23.36;68.93;100294.44;10382711;28;20120;-58
2023/09/13 09:21:39;;;;;;;4.88;2.25;;;;;;;23.44;65.25;100293.13;10384812;28;20778;-58
2023/09/13 09:26:41;;;;;;;4.85;1.77;;;;;;;23.39;64.12;100287.56;10385232;28;20505;-58
2023/09/13 09:31:42;;;;;;;2.83;1.90;;;;;;;23.55;62.44;100285.78;10389457;28;20060;-59
2023/09/13 09:36:46;;;;;;;2.47;1.85;;;;;;;23.53;61.71;100307.97;10384602;28;20046;-59
2023/09/13 09:41:48;;;;;;;1.88;1.55;;;;;;;23.41;60.66;100312.00;10388555;28;20045;-62
2023/09/13 09:46:50;;;;;;;4.68;1.73;;;;;;;23.39;60.95;100298.56;10385000;28;20057;-59
2023/09/13 09:51:53;;;;;;;2.67;1.98;;;;;;;23.35;61.14;100306.47;10392703;28;20574;-59
2023/09/13 09:56:55;;;;;;;2.67;2.17;;;;;;;23.38;61.08;100309.78;10388082;28;20092;-59
2023/09/13 10:01:57;;;;;;;2.65;2.03;;;;;;;23.65;60.97;100321.50;10384020;28;20064;-58
2023/09/13 10:07:03;;;;;;;4.32;2.35;;;;;;;23.80;60.60;100323.56;10381834;28;20052;-61
2023/09/13 10:12:07;;;;;;;;;;;;;;;23.88;61.52;100325.00;10390041;28;20156;-59
2023/09/13 10:17:09;;;;;;;6.78;2.33;;;;;;;23.77;59.89;100337.78;10401958;28;20372;-58
2023/09/13 10:22:14;;;;;;;2.97;2.15;;;;;;;23.70;58.90;100346.25;10388410;28;20053;-58
2023/09/13 10:27:19;;;;;;;3.47;2.20;;;;;;;23.62;58.90;100354.16;10383748;28;20069;-61
2023/09/13 10:32:25;;;;;;;6.20;2.28;;;;;;;23.50;58.48;100360.66;10386284;28;20461;-61
2023/09/13 10:37:39;;;;;;;4.85;2.20;;;;;;;23.56;58.44;100351.38;10385606;28;20417;-61
2023/09/13 10:42:42;;;;;;;3.25;2.47;;;;;;;23.98;57.00;100348.94;10383021;28;20902;-61
2023/09/13 10:47:49;;;;;;;6.90;3.92;;;;;;;23.84;55.35;100352.16;10387140;28;20060;-60
2023/09/13 10:52:50;;;;;;;4.80;3.13;;;;;;;24.47;55.33;100348.66;10381407;28;20130;-61
2023/09/13 10:57:52;;;;;;;4.18;3.30;;;;;;;24.58;54.71;100344.03;10383460;28;20037;-60
2023/09/13 11:02:54;;;;;;;3.25;2.70;;;;;;;24.78;54.56;100337.78;10387230;28;20538;-60
2023/09/13 11:07:55;;;;;;;4.80;3.47;;;;;;;24.77;53.62;100347.13;10400648;28;20349;-61
2023/09/13 11:13:11;;;;;;;3.55;3.10;;;;;;;25.29;53.07;100338.72;10383632;28;20061;-60
2023/09/13 11:18:14;;;;;;;4.33;3.53;;;;;;;25.20;53.29;100340.34;10386181;28;20128;-57
2023/09/13 11:23:18;;;;;;;3.95;2.85;;;;;;;25.59;52.26;100342.56;10381778;28;20048;-58
2023/09/13 11:28:43;;;;;;;4.68;2.95;;;;;;;25.55;51.98;100338.72;10385151;28;20037;-59
2023/09/13 11:33:55;;;;;;;4.43;3.10;;;;;;;25.64;50.98;100333.47;10387405;28;20141;-59
2023/09/13 11:39:00;;;;;;;3.58;1.98;;;;;;;25.73;50.11;100340.06;10388677;28;20126;-60
2023/09/13 11:44:03;;;;;;;3.17;2.43;;;;;;;26.13;49.74;100332.88;10384560;28;20041;-60
2023/09/13 11:49:05;;;;;;;4.13;2.88;;;;;;;26.18;49.17;100338.34;10383802;28;20081;-60
2023/09/13 11:54:15;;;;;;;6.03;2.30;;;;;;;26.47;49.05;100340.47;10383193;28;20041;-60
2023/09/13 11:59:23;;;;;;;4.35;2.50;;;;;;;26.44;48.43;100339.09;10383478;28;20077;-60
2023/09/13 12:04:26;;;;;;;4.70;2.95;;;;;;;26.09;48.63;100346.38;10384358;28;20054;-64
2023/09/13 12:09:30;;;;;;;3.43;2.90;;;;;;;25.87;48.85;100343.91;10383542;28;20052;-63
2023/09/13 12:14:36;;;;;;;5.80;1.87;;;;;;;26.30;48.54;100341.63;10381626;28;20079;-64
2023/09/13 12:19:57;;;;;;;1.80;1.58;;;;;;;26.38;47.23;100339.38;10380875;28;20069;-66
2023/09/13 12:24:59;;;;;;;3.45;1.80;;;;;;;26.45;47.39;100346.25;10380816;28;20045;-65
2023/09/13 12:30:05;;;;;;;3.15;2.38;;;;;;;26.52;47.21;100343.16;10377938;28;20450;-65
2023/09/13 12:35:07;;;;;;;3.10;1.60;;;;;;;26.35;47.21;100338.03;10380459;28;20061;-65
2023/09/13 12:40:13;;;;;;;1.40;1.08;;;;;;;26.82;46.37;100346.94;10374909;28;20049;-65
2023/09/13 12:45:15;;;;;;;1.83;1.48;;;;;;;27.43;45.31;100343.78;10381535;28;20504;-70
2023/09/13 12:50:20;;;;;;;1.95;1.30;;;;;;;27.45;45.50;100343.50;10380090;28;20057;-69
2023/09/13 12:55:34;;;;;;;1.67;1.20;;;;;;;27.00;46.22;100340.75;10383919;28;20048;-66
2023/09/13 13:00:49;;;;;;;2.47;0.95;;;;;;;26.78;46.04;100340.31;10389558;28;20046;-70
2023/09/13 13:05:54;;;;;;;2.75;0.90;;;;;;;26.54;46.05;100343.75;10393216;28;20057;-64
2023/09/13 13:10:58;;;;;;;1.35;0.73;;;;;;;26.61;45.96;100336.00;10387375;28;20050;-67
2023/09/13 13:16:23;;;;;;;1.80;0.90;;;;;;;27.00;45.64;100337.97;10388899;28;20046;-67
2023/09/13 13:21:51;;;;;;;1.15;0.75;;;;;;;27.26;45.27;100332.31;10391721;28;20504;-64
2023/09/13 13:27:11;;;;;;;;;;;;;;;26.83;46.02;100346.63;10392480;28;20045;-67
2023/09/13 13:32:13;;;;;;;2.25;0.80;;;;;;;26.44;45.65;100339.09;10395300;28;19927;-65
2023/09/13 13:37:14;;;;;;;1.15;0.77;;;;;;;26.53;45.24;100344.84;10386006;28;20049;-69
2023/09/13 13:42:16;;;;;;;2.75;1.20;;;;;;;26.85;45.07;100343.59;10384042;28;20061;-69
2023/09/13 13:47:17;;;;;;;1.88;1.00;;;;;;;27.00;45.05;100337.16;10384780;28;20045;-66
2023/09/13 13:52:19;;;;;;;1.52;0.88;;;;;;;26.80;44.99;100332.59;10392827;28;20049;-68
2023/09/13 13:57:22;;;;;;;2.47;0.68;;;;;;;27.09;43.88;100328.00;10387523;28;20046;-63
2023/09/13 14:02:24;;;;;;;1.75;0.70;;;;;;;27.87;42.75;100322.63;10386490;28;20089;-62
2023/09/13 14:07:25;;;;;;;1.55;0.90;;;;;;;27.37;44.05;100330.28;10385839;28;20104;-61
2023/09/13 14:12:27;;;;;;;1.17;0.70;;;;;;;27.20;44.16;100330.69;10383627;28;20057;-61
2023/09/13 14:17:28;;;;;;;1.60;0.60;;;;;;;27.18;44.28;100333.72;10385024;28;20050;-60
2023/09/13 14:22:30;;;;;;;1.52;0.80;;;;;;;26.86;44.35;100334.22;10386077;28;20144;-61
2023/09/13 14:27:32;;;;;;;3.45;0.80;;;;;;;26.92;44.46;100333.06;10380743;28;20042;-60
2023/09/13 14:32:53;;;;;;;2.22;1.10;;;;;;;26.75;44.88;100329.88;10384781;28;20077;-61
2023/09/13 14:37:55;;;;;;;0.85;0.65;;;;;;;26.56;44.52;100332.41;10383765;28;20503;-60
2023/09/13 14:42:57;;;;;;;1.35;0.60;;;;;;;27.02;43.77;100345.97;10375344;28;20053;-60
2023/09/13 14:47:58;;;;;;;1.48;0.70;;;;;;;26.51;44.54;100339.59;10393258;28;20593;-60
2023/09/13 14:53:00;;;;;;;3.03;0.75;;;;;;;26.25;44.65;100340.81;10387261;28;20081;-60
2023/09/13 14:58:01;;;;;;;1.55;0.85;;;;;;;26.13;45.32;100335.63;10382283;28;20042;-60
2023/09/13 15:03:03;;;;;;;2.10;0.73;;;;;;;26.38;45.31;100340.19;10386336;28;20038;-60
2023/09/13 15:08:05;;;;;;;1.08;0.70;;;;;;;26.34;46.18;100347.38;10380562;28;20044;-68
2023/09/13 15:13:06;;;;;;;1.20;0.90;;;;;;;26.20;46.95;100349.91;10383656;28;20508;-68
2023/09/13 15:18:08;;;;;;;1.05;0.70;;;;;;;26.13;46.54;100352.16;10385236;28;20038;-66
2023/09/13 15:23:10;;;;;;;2.20;0.93;;;;;;;25.99;46.81;100349.16;10382556;28;20058;-68
2023/09/13 15:28:11;;;;;;;0.90;0.77;;;;;;;26.09;47.08;100356.56;10381309;28;20365;-68
2023/09/13 15:33:12;;;;;;;2.58;1.38;;;;;;;26.23;46.74;100363.13;10387871;28;20049;-68
2023/09/13 15:38:14;;;;;;;4.00;1.25;;;;;;;26.19;46.97;100366.75;10371421;28;20042;-69
2023/09/13 15:43:16;;;;;;;1.45;0.80;;;;;;;25.98;47.39;100372.28;10376402;28;20060;-68
2023/09/13 15:48:18;;;;;;;2.33;0.80;;;;;;;25.88;47.85;100370.34;10381250;28;20145;-68
2023/09/13 15:53:19;;;;;;;1.67;0.85;;;;;;;25.99;47.54;100382.22;10377715;28;20045;-67
2023/09/13 15:58:21;;;;;;;1.70;0.80;;;;;;;25.78;48.37;100389.63;10379716;28;20063;-67
2023/09/13 16:03:22;;;;;;;2.42;1.10;;;;;;;25.85;48.46;100384.69;10384642;28;20038;-68
2023/09/13 16:08:24;;;;;;;3.47;0.80;;;;;;;25.78;48.29;100391.56;10382779;28;20529;-68
2023/09/13 16:13:26;;;;;;;0.93;0.60;;;;;;;25.70;48.04;100392.94;10384397;28;20044;-67
2023/09/13 16:18:27;;;;;;;3.47;0.60;;;;;;;25.62;47.67;100390.75;10381922;28;20041;-69
2023/09/13 16:23:29;;;;;;;2.78;0.60;;;;;;;25.41;48.00;100384.41;10384182;28;20064;-67
2023/09/13 16:28:30;;;;;;;1.67;0.50;;;;;;;25.23;47.74;100389.34;10387484;28;20072;-69
2023/09/13 16:33:32;;;;;;;3.22;0.63;;;;;;;25.02;48.12;100385.72;10382323;28;20049;-67
2023/09/13 16:38:34;;;;;;;2.03;0.70;;;;;;;24.88;48.93;100396.41;10395173;28;20046;-68
2023/09/13 16:43:36;;;;;;;1.40;0.88;;;;;;;24.88;49.12;100390.03;10404689;28;20488;-69
2023/09/13 16:48:37;;;;;;;3.80;0.88;;;;;;;24.70;49.42;100392.22;10396446;28;20048;-67
2023/09/13 16:53:39;;;;;;;4.55;0.70;;;;;;;24.53;50.24;100391.59;10406399;28;20068;-64
2023/09/13 16:58:40;;;;;;;1.08;0.68;;;;;;;24.69;50.21;100401.53;10387125;28;20083;-67
2023/09/13 17:03:42;;;;;;;1.60;0.93;;;;;;;24.65;50.64;100400.44;10393834;28;20041;-69
2023/09/13 17:08:43;;;;;;;4.05;1.17;;;;;;;24.51;50.38;100407.53;10393852;28;20168;-68
2023/09/13 17:13:47;;;;;;;2.17;1.00;;;;;;;24.31;51.50;100416.44;10396441;28;20461;-67
2023/09/13 17:18:49;;;;;;;1.00;0.80;;;;;;;24.28;51.57;100419.72;10389882;28;20053;-69
2023/09/13 17:23:51;;;;;;;1.92;1.10;;;;;;;24.19;51.97;100427.66;10387025;28;20050;-60
2023/09/13 17:28:53;;;;;;;1.38;0.90;;;;;;;24.11;51.72;100433.59;10387011;28;20046;-69
2023/09/13 17:33:54;;;;;;;2.10;1.20;;;;;;;24.01;52.18;100444.53;10381314;28;20416;-67
2023/09/13 17:38:56;;;;;;;4.97;2.15;;;;;;;23.90;52.04;100454.63;10384060;28;20083;-65
2023/09/13 17:43:57;;;;;;;2.45;1.38;;;;;;;23.87;52.38;100463.34;10385313;28;20607;-67
2023/09/13 17:48:59;;;;;;;1.38;1.15;;;;;;;23.90;51.94;100480.16;10386702;28;20049;-67
2023/09/13 17:54:01;;;;;;;2.53;1.40;;;;;;;23.93;52.01;100487.88;10382664;28;20135;-70
2023/09/13 17:59:03;;;;;;;4.43;1.58;;;;;;;23.92;52.28;100496.38;10391681;28;20537;-64
2023/09/13 18:04:04;;;;;;;2.63;1.20;;;;;;;23.53;53.45;100497.31;10391787;28;20065;-68
2023/09/13 18:09:06;;;;;;;2.35;1.58;;;;;;;23.46;53.81;100510.44;10394197;28;20504;-68
2023/09/13 18:14:08;;;;;;;2.50;1.75;;;;;;;23.44;53.75;100515.38;10385222;28;20052;-64
2023/09/13 18:19:10;;;;;;;3.38;1.10;;;;;;;23.30;54.34;100525.91;10386069;28;20832;-64
2023/09/13 18:24:12;;;;;;;2.65;1.27;;;;;;;23.21;54.73;100530.19;10385369;28;20477;-65
2023/09/13 18:29:20;;;;;;;2.15;0.90;;;;;;;23.01;55.20;100544.44;10387011;28;20574;-65
2023/09/13 18:34:25;;;;;;;0.80;0.50;;;;;;;22.90;55.14;100553.59;10382741;28;20049;-61
2023/09/13 18:39:27;;;;;;;1.45;0.40;;;;;;;22.64;55.16;100560.63;10386308;28;20045;-63
2023/09/13 18:44:28;;;;;;;0.88;0.52;;;;;;;22.49;55.37;100577.63;10382830;28;20054;-64
2023/09/13 18:49:30;;;;;;;1.15;0.40;;;;;;;22.33;55.83;100582.91;10386586;28;20107;-62
2023/09/13 18:54:31;;;;;;;1.58;0.40;;;;;;;22.04;56.26;100605.88;10381488;28;20568;-60
2023/09/13 18:59:34;;;;;;;0.93;0.50;;;;;;;21.89;56.56;100615.47;10377613;28;20049;-61
2023/09/13 19:04:35;;;;;;;1.85;0.60;;;;;;;21.83;56.16;100615.63;10383889;28;20513;-62
2023/09/13 19:09:40;;;;;;;0.98;0.50;;;;;;;21.77;56.49;100633.84;10380194;28;20046;-61
2023/09/13 19:14:42;;;;;;;2.20;0.50;;;;;;;21.62;57.12;100633.53;10386082;28;20484;-62
2023/09/13 19:19:43;;;;;;;3.00;0.70;;;;;;;21.46;57.13;100652.34;10386910;28;20038;-61
2023/09/13 19:24:45;;;;;;;1.77;0.50;;;;;;;21.31;56.90;100662.94;10381903;28;20048;-62
2023/09/13 19:29:57;;;;;;;2.25;0.68;;;;;;;21.16;57.02;100683.38;10385014;28;20128;-61
2023/09/13 19:34:59;;;;;;;1.73;0.50;;;;;;;21.08;56.60;100681.00;10386196;28;20147;-63
2023/09/13 19:40:01;;;;;;;2.67;0.50;;;;;;;21.04;56.64;100696.22;10380045;28;20125;-61
2023/09/13 19:45:03;;;;;;;1.23;0.52;;;;;;;20.90;57.07;100708.47;10388498;28;20041;-64
2023/09/13 19:50:08;;;;;;;0.73;0.30;;;;;;;20.88;57.15;100710.59;10385919;28;20060;-64
2023/09/13 19:55:10;;;;;;;0.57;0.28;;;;;;;20.80;56.58;100723.53;10371221;28;20084;-63
2023/09/13 20:00:11;;;;;;;0.70;0.38;;;;;;;20.71;56.71;100726.84;10373031;28;20046;-62
2023/09/13 20:05:13;;;;;;;1.20;0.32;;;;;;;20.64;56.59;100729.69;10379706;28;20060;-62
2023/09/13 20:10:14;;;;;;;2.80;0.30;;;;;;;20.60;56.18;100739.41;10391006;28;20200;-62
2023/09/13 20:15:18;;;;;;;0.60;0.20;;;;;;;20.47;56.21;100750.50;10382282;28;20060;-61
2023/09/13 20:20:19;;;;;;;1.23;0.20;;;;;;;20.31;55.80;100755.53;10382024;28;20049;-63
2023/09/13 20:25:21;;;;;;;1.00;0.20;;;;;;;20.21;55.60;100766.16;10363109;28;20042;-63
2023/09/13 20:30:22;;;;;;;1.40;0.20;;;;;;;20.11;55.34;100771.34;10366344;28;20056;-62
2023/09/13 20:35:24;;;;;;;1.60;0.10;;;;;;;20.13;55.09;100769.22;10387762;28;20116;-60
2023/09/13 20:40:25;;;;;;;2.50;0.20;;;;;;;20.17;54.99;100782.16;10381018;28;20072;-63
2023/09/13 20:45:27;;;;;;;3.15;0.30;;;;;;;20.12;54.82;100787.50;10386605;28;20150;-61
2023/09/13 20:50:28;;;;;;;0.30;0.17;;;;;;;20.19;54.90;100785.50;10382474;28;20100;-61
2023/09/13 20:55:33;;;;;;;0.30;0.20;;;;;;;20.11;55.17;100780.34;10381233;28;20489;-61
2023/09/13 21:00:35;;;;;;;0.28;0.25;;;;;;;20.07;55.29;100791.97;10381295;28;20045;-62
2023/09/13 21:05:37;;;;;;;0.40;0.20;;;;;;;19.98;55.10;100789.53;10380822;28;20053;-63
2023/09/13 21:10:38;;;;;;;0.90;0.28;;;;;;;19.99;54.93;100795.81;10386128;28;20056;-63
2023/09/13 21:15:39;;;;;;;1.52;0.28;;;;;;;19.92;55.08;100806.78;10389219;28;20065;-61
2023/09/13 21:20:41;;;;;;;0.75;0.30;;;;;;;19.96;54.71;100805.31;10386128;28;20074;-63
2023/09/13 21:25:42;;;;;;;2.97;0.30;;;;;;;19.84;55.20;100809.81;10394950;28;20979;-63
2023/09/13 21:30:44;;;;;;;4.57;0.90;;;;;;;19.77;55.34;100815.38;10390991;28;20054;-61
2023/09/13 21:35:45;;;;;;;0.50;0.20;;;;;;;19.78;55.11;100816.19;10387019;28;20050;-61
2023/09/13 21:40:47;;;;;;;0.60;0.22;;;;;;;19.69;55.25;100821.09;10391433;28;20488;-64
2023/09/13 21:45:48;;;;;;;0.82;0.20;;;;;;;19.72;54.89;100833.47;10387833;28;20046;-62
2023/09/13 21:50:50;;;;;;;0.70;0.30;;;;;;;19.74;54.74;100832.16;10392224;28;20037;-62
2023/09/13 21:55:51;;;;;;;1.63;0.40;;;;;;;19.61;55.27;100835.00;10392458;28;20041;-63
2023/09/13 22:00:58;;;;;;;2.08;0.30;;;;;;;19.55;55.37;100842.19;10388487;28;20183;-61
2023/09/13 22:06:00;;;;;;;;;;;;;;;19.47;55.42;100844.34;10388457;28;20049;-63
2023/09/13 22:11:06;;;;;;;1.17;0.40;;;;;;;19.32;55.47;100850.16;10386942;28;20353;-64
2023/09/13 22:16:08;;;;;;;1.98;0.30;;;;;;;19.14;55.70;100843.56;10383101;28;20034;-63
2023/09/13 22:21:10;;;;;;;4.10;0.40;;;;;;;19.09;55.79;100837.09;10396266;28;20510;-63
2023/09/13 22:26:11;;;;;;;1.77;0.35;;;;;;;18.98;56.07;100844.09;10391718;28;20164;-62
2023/09/13 22:31:17;;;;;;;1.23;0.40;;;;;;;18.87;56.36;100839.34;10389542;28;20069;-63
2023/09/13 22:36:18;;;;;;;2.50;0.40;;;;;;;18.73;56.78;100836.66;10385903;28;20045;-62
2023/09/13 22:41:20;;;;;;;2.55;0.30;;;;;;;18.59;57.16;100845.94;10382323;28;20065;-64
2023/09/13 22:46:21;;;;;;;1.00;0.40;;;;;;;18.43;57.46;100853.56;10390258;28;20050;-63
2023/09/13 22:51:23;;;;;;;1.67;0.30;;;;;;;18.28;57.68;100855.69;10389841;28;20041;-63
2023/09/13 22:56:25;;;;;;;1.35;0.40;;;;;;;18.22;58.06;100862.00;10387132;28;20049;-62
2023/09/13 23:01:26;;;;;;;0.70;0.28;;;;;;;18.12;58.16;100851.56;10367421;28;20244;-63
2023/09/13 23:06:28;;;;;;;1.83;0.32;;;;;;;18.02;58.40;100846.56;10386874;28;20052;-63
2023/09/13 23:11:29;;;;;;;4.60;0.60;;;;;;;18.00;58.67;100858.72;10382570;28;20113;-63
2023/09/13 23:16:34;;;;;;;1.45;0.40;;;;;;;17.89;58.86;100854.78;10383963;28;20396;-66